sensor_id;sensor_type;location;lat;lon;timestamp;temperature;humidity
9975;DHT22;5028;50.974;4.968;2023-04-03T00:02:18;3.60;99.90
9975;DHT22;5028;50.974;4.968;2023-04-03T00:04:59;3.60;99.90
9975;DHT22;5028;50.974;4.968;2023-04-03T00:07:35;3.50;99.90
9975;DHT22;5028;50.974;4.968;2023-04-03T00:10:04;3.50;99.90
9975;DHT22;5028;50.974;4.968;2023-04-03T00:12:40;3.50;99.90
9975;DHT22;5028;50.974;4.968;2023-04-03T00:15:15;3.40;99.90
9975;DHT22;5028;50.974;4.968;2023-04-03T00:17:45;3.40;99.90
9975;DHT22;5028;50.974;4.968;2023-04-03T00:20:20;3.50;99.90
9975;DHT22;5028;50.974;4.968;2023-04-03T00:22:55;3.30;99.90
9975;DHT22;5028;50.974;4.968;2023-04-03T00:25:23;3.30;99.90
9975;DHT22;5028;50.974;4.968;2023-04-03T00:27:59;3.30;99.90
9975;DHT22;5028;50.974;4.968;2023-04-03T00:30:34;3.30;99.90
9975;DHT22;5028;50.974;4.968;2023-04-03T00:33:04;3.30;99.90
9975;DHT22;5028;50.974;4.968;2023-04-03T00:35:39;3.20;99.90
9975;DHT22;5028;50.974;4.968;2023-04-03T00:38:08;3.20;99.90
9975;DHT22;5028;50.974;4.968;2023-04-03T00:40:46;3.20;99.90
9975;DHT22;5028;50.974;4.968;2023-04-03T00:43:23;3.20;99.90
9975;DHT22;5028;50.974;4.968;2023-04-03T00:45:53;3.20;99.90
9975;DHT22;5028;50.974;4.968;2023-04-03T00:48:32;3.10;99.90
9975;DHT22;5028;50.974;4.968;2023-04-03T00:51:02;3.10;99.90
9975;DHT22;5028;50.974;4.968;2023-04-03T00:53:41;3.10;99.90
9975;DHT22;5028;50.974;4.968;2023-04-03T00:56:13;3.10;99.90
9975;DHT22;5028;50.974;4.968;2023-04-03T00:58:52;3.10;99.90
9975;DHT22;5028;50.974;4.968;2023-04-03T01:01:25;3.10;99.90
9975;DHT22;5028;50.974;4.968;2023-04-03T01:04:03;3.00;99.90
9975;DHT22;5028;50.974;4.968;2023-04-03T01:06:39;3.00;99.90
9975;DHT22;5028;50.974;4.968;2023-04-03T01:09:14;3.00;99.90
9975;DHT22;5028;50.974;4.968;2023-04-03T01:11:50;3.00;99.90
9975;DHT22;5028;50.974;4.968;2023-04-03T01:14:25;3.00;99.90
9975;DHT22;5028;50.974;4.968;2023-04-03T01:16:54;3.00;99.90
9975;DHT22;5028;50.974;4.968;2023-04-03T01:19:31;3.00;99.90
9975;DHT22;5028;50.974;4.968;2023-04-03T01:22:15;2.90;99.90
9975;DHT22;5028;50.974;4.968;2023-04-03T01:24:47;2.90;99.90
9975;DHT22;5028;50.974;4.968;2023-04-03T01:27:24;2.90;99.90
9975;DHT22;5028;50.974;4.968;2023-04-03T01:29:53;2.80;99.90
9975;DHT22;5028;50.974;4.968;2023-04-03T01:32:29;2.80;99.90
9975;DHT22;5028;50.974;4.968;2023-04-03T01:34:58;2.80;99.90
9975;DHT22;5028;50.974;4.968;2023-04-03T01:37:33;2.80;99.90
9975;DHT22;5028;50.974;4.968;2023-04-03T01:40:02;2.90;99.90
9975;DHT22;5028;50.974;4.968;2023-04-03T01:42:37;2.70;99.90
9975;DHT22;5028;50.974;4.968;2023-04-03T01:45:06;2.70;99.90
9975;DHT22;5028;50.974;4.968;2023-04-03T01:47:43;2.60;99.90
9975;DHT22;5028;50.974;4.968;2023-04-03T01:50:12;2.60;99.90
9975;DHT22;5028;50.974;4.968;2023-04-03T01:52:47;2.50;99.90
9975;DHT22;5028;50.974;4.968;2023-04-03T01:55:22;2.50;99.90
9975;DHT22;5028;50.974;4.968;2023-04-03T01:57:51;2.50;99.90
9975;DHT22;5028;50.974;4.968;2023-04-03T02:00:26;2.50;99.90
9975;DHT22;5028;50.974;4.968;2023-04-03T02:03:03;2.50;99.90
9975;DHT22;5028;50.974;4.968;2023-04-03T02:05:38;2.50;99.90
9975;DHT22;5028;50.974;4.968;2023-04-03T02:08:14;2.50;99.90
9975;DHT22;5028;50.974;4.968;2023-04-03T02:10:51;2.40;99.90
9975;DHT22;5028;50.974;4.968;2023-04-03T02:13:20;2.40;99.90
9975;DHT22;5028;50.974;4.968;2023-04-03T02:15:55;2.40;99.90
9975;DHT22;5028;50.974;4.968;2023-04-03T02:18:25;2.30;99.90
9975;DHT22;5028;50.974;4.968;2023-04-03T02:21:00;2.40;99.90
9975;DHT22;5028;50.974;4.968;2023-04-03T02:23:35;2.30;99.90
9975;DHT22;5028;50.974;4.968;2023-04-03T02:26:06;2.30;99.90
9975;DHT22;5028;50.974;4.968;2023-04-03T02:28:35;2.30;99.90
9975;DHT22;5028;50.974;4.968;2023-04-03T02:31:10;2.30;99.90
9975;DHT22;5028;50.974;4.968;2023-04-03T02:33:40;2.20;99.90
9975;DHT22;5028;50.974;4.968;2023-04-03T02:36:16;2.20;99.90
9975;DHT22;5028;50.974;4.968;2023-04-03T02:38:44;2.20;99.90
9975;DHT22;5028;50.974;4.968;2023-04-03T02:41:20;2.20;99.90
9975;DHT22;5028;50.974;4.968;2023-04-03T02:43:56;2.20;99.90
9975;DHT22;5028;50.974;4.968;2023-04-03T02:46:24;2.20;99.90
9975;DHT22;5028;50.974;4.968;2023-04-03T02:49:02;2.10;99.90
9975;DHT22;5028;50.974;4.968;2023-04-03T02:51:37;2.10;99.90
9975;DHT22;5028;50.974;4.968;2023-04-03T02:54:05;2.20;99.90
9975;DHT22;5028;50.974;4.968;2023-04-03T02:56:41;2.10;99.90
9975;DHT22;5028;50.974;4.968;2023-04-03T02:59:16;2.10;99.90
9975;DHT22;5028;50.974;4.968;2023-04-03T03:01:44;2.10;99.90
9975;DHT22;5028;50.974;4.968;2023-04-03T03:04:22;2.10;99.90
9975;DHT22;5028;50.974;4.968;2023-04-03T03:06:57;2.10;99.90
9975;DHT22;5028;50.974;4.968;2023-04-03T03:09:32;2.10;99.90
9975;DHT22;5028;50.974;4.968;2023-04-03T03:12:07;2.00;99.90
9975;DHT22;5028;50.974;4.968;2023-04-03T03:14:35;2.00;99.90
9975;DHT22;5028;50.974;4.968;2023-04-03T03:17:04;2.20;99.90
9975;DHT22;5028;50.974;4.968;2023-04-03T03:19:40;2.00;99.90
9975;DHT22;5028;50.974;4.968;2023-04-03T03:22:09;2.00;99.90
9975;DHT22;5028;50.974;4.968;2023-04-03T03:24:37;1.90;99.90
9975;DHT22;5028;50.974;4.968;2023-04-03T03:27:13;1.90;99.90
9975;DHT22;5028;50.974;4.968;2023-04-03T03:29:43;1.80;99.90
9975;DHT22;5028;50.974;4.968;2023-04-03T03:32:11;1.80;99.90
9975;DHT22;5028;50.974;4.968;2023-04-03T03:34:48;1.80;99.90
9975;DHT22;5028;50.974;4.968;2023-04-03T03:37:17;1.70;99.90
9975;DHT22;5028;50.974;4.968;2023-04-03T03:39:52;1.70;99.90
9975;DHT22;5028;50.974;4.968;2023-04-03T03:42:27;1.70;99.90
9975;DHT22;5028;50.974;4.968;2023-04-03T03:44:55;1.60;99.90
9975;DHT22;5028;50.974;4.968;2023-04-03T03:47:30;1.60;99.90
9975;DHT22;5028;50.974;4.968;2023-04-03T03:50:00;1.70;99.90
9975;DHT22;5028;50.974;4.968;2023-04-03T03:52:35;1.60;99.90
9975;DHT22;5028;50.974;4.968;2023-04-03T03:55:10;1.60;99.90
9975;DHT22;5028;50.974;4.968;2023-04-03T03:57:39;1.60;99.90
9975;DHT22;5028;50.974;4.968;2023-04-03T04:00:14;1.60;99.90
9975;DHT22;5028;50.974;4.968;2023-04-03T04:02:51;1.50;99.90
9975;DHT22;5028;50.974;4.968;2023-04-03T04:05:28;1.50;99.90
9975;DHT22;5028;50.974;4.968;2023-04-03T04:08:05;1.40;99.90
9975;DHT22;5028;50.974;4.968;2023-04-03T04:10:40;1.40;99.90
9975;DHT22;5028;50.974;4.968;2023-04-03T04:13:09;1.40;99.90
9975;DHT22;5028;50.974;4.968;2023-04-03T04:15:44;1.40;99.90
9975;DHT22;5028;50.974;4.968;2023-04-03T04:18:19;1.30;99.90
9975;DHT22;5028;50.974;4.968;2023-04-03T04:20:50;1.20;99.90
9975;DHT22;5028;50.974;4.968;2023-04-03T04:23:26;1.20;99.90
9975;DHT22;5028;50.974;4.968;2023-04-03T04:25:55;1.20;99.90
9975;DHT22;5028;50.974;4.968;2023-04-03T04:28:23;1.20;99.90
9975;DHT22;5028;50.974;4.968;2023-04-03T04:30:58;1.20;99.90
9975;DHT22;5028;50.974;4.968;2023-04-03T04:33:26;1.20;99.90
9975;DHT22;5028;50.974;4.968;2023-04-03T04:35:56;1.20;99.90
9975;DHT22;5028;50.974;4.968;2023-04-03T04:38:31;1.10;99.90
9975;DHT22;5028;50.974;4.968;2023-04-03T04:40:59;1.10;99.90
9975;DHT22;5028;50.974;4.968;2023-04-03T04:43:28;1.10;99.90
9975;DHT22;5028;50.974;4.968;2023-04-03T04:46:05;1.10;99.90
9975;DHT22;5028;50.974;4.968;2023-04-03T04:48:34;1.10;99.90
9975;DHT22;5028;50.974;4.968;2023-04-03T04:51:10;1.10;99.90
9975;DHT22;5028;50.974;4.968;2023-04-03T04:53:46;1.10;99.90
9975;DHT22;5028;50.974;4.968;2023-04-03T04:56:15;1.10;99.90
9975;DHT22;5028;50.974;4.968;2023-04-03T04:58:50;1.10;99.90
9975;DHT22;5028;50.974;4.968;2023-04-03T05:01:25;1.10;99.90
9975;DHT22;5028;50.974;4.968;2023-04-03T05:03:54;1.10;99.90
9975;DHT22;5028;50.974;4.968;2023-04-03T05:06:30;1.10;99.90
9975;DHT22;5028;50.974;4.968;2023-04-03T05:09:12;1.10;99.90
9975;DHT22;5028;50.974;4.968;2023-04-03T05:11:41;1.10;99.90
9975;DHT22;5028;50.974;4.968;2023-04-03T05:14:16;1.10;99.90
9975;DHT22;5028;50.974;4.968;2023-04-03T05:16:51;1.10;99.90
9975;DHT22;5028;50.974;4.968;2023-04-03T05:19:21;1.10;99.90
9975;DHT22;5028;50.974;4.968;2023-04-03T05:21:57;1.10;99.90
9975;DHT22;5028;50.974;4.968;2023-04-03T05:24:33;1.10;99.90
9975;DHT22;5028;50.974;4.968;2023-04-03T05:27:02;1.10;99.90
9975;DHT22;5028;50.974;4.968;2023-04-03T05:29:37;1.10;99.90
9975;DHT22;5028;50.974;4.968;2023-04-03T05:32:06;1.10;99.90
9975;DHT22;5028;50.974;4.968;2023-04-03T05:34:34;1.10;99.90
9975;DHT22;5028;50.974;4.968;2023-04-03T05:37:11;1.10;99.90
9975;DHT22;5028;50.974;4.968;2023-04-03T05:39:40;1.20;99.90
9975;DHT22;5028;50.974;4.968;2023-04-03T05:42:08;1.20;99.90
9975;DHT22;5028;50.974;4.968;2023-04-03T05:44:44;1.10;99.90
9975;DHT22;5028;50.974;4.968;2023-04-03T05:47:14;1.20;99.90
9975;DHT22;5028;50.974;4.968;2023-04-03T05:49:42;1.20;99.90
9975;DHT22;5028;50.974;4.968;2023-04-03T05:52:23;1.30;99.90
9975;DHT22;5028;50.974;4.968;2023-04-03T05:54:52;1.30;99.90
9975;DHT22;5028;50.974;4.968;2023-04-03T05:57:28;1.30;99.90
9975;DHT22;5028;50.974;4.968;2023-04-03T06:00:04;1.30;99.90
9975;DHT22;5028;50.974;4.968;2023-04-03T06:02:33;1.30;99.90
9975;DHT22;5028;50.974;4.968;2023-04-03T06:05:16;1.30;99.90
9975;DHT22;5028;50.974;4.968;2023-04-03T06:07:58;1.30;99.90
9975;DHT22;5028;50.974;4.968;2023-04-03T06:10:34;1.40;99.90
9975;DHT22;5028;50.974;4.968;2023-04-03T06:13:10;1.50;99.90
9975;DHT22;5028;50.974;4.968;2023-04-03T06:15:39;1.60;99.90
9975;DHT22;5028;50.974;4.968;2023-04-03T06:18:14;1.60;99.90
9975;DHT22;5028;50.974;4.968;2023-04-03T06:20:49;1.70;99.90
9975;DHT22;5028;50.974;4.968;2023-04-03T06:23:19;1.70;99.90
9975;DHT22;5028;50.974;4.968;2023-04-03T06:25:54;1.80;99.90
9975;DHT22;5028;50.974;4.968;2023-04-03T06:28:29;1.80;99.90
9975;DHT22;5028;50.974;4.968;2023-04-03T06:30:58;1.90;99.90
9975;DHT22;5028;50.974;4.968;2023-04-03T06:33:33;1.90;99.90
9975;DHT22;5028;50.974;4.968;2023-04-03T06:36:04;2.00;99.90
9975;DHT22;5028;50.974;4.968;2023-04-03T06:38:35;2.10;99.90
9975;DHT22;5028;50.974;4.968;2023-04-03T06:41:10;2.10;99.90
9975;DHT22;5028;50.974;4.968;2023-04-03T06:43:39;2.20;99.90
9975;DHT22;5028;50.974;4.968;2023-04-03T06:46:13;2.20;99.90
9975;DHT22;5028;50.974;4.968;2023-04-03T06:48:49;2.30;99.90
9975;DHT22;5028;50.974;4.968;2023-04-03T06:51:20;2.40;99.90
9975;DHT22;5028;50.974;4.968;2023-04-03T06:53:59;2.50;99.90
9975;DHT22;5028;50.974;4.968;2023-04-03T06:56:35;2.50;99.90
9975;DHT22;5028;50.974;4.968;2023-04-03T06:59:04;2.60;99.90
9975;DHT22;5028;50.974;4.968;2023-04-03T07:01:33;2.60;99.90
9975;DHT22;5028;50.974;4.968;2023-04-03T07:04:15;2.70;99.90
9975;DHT22;5028;50.974;4.968;2023-04-03T07:06:56;2.70;99.90
9975;DHT22;5028;50.974;4.968;2023-04-03T07:09:34;2.80;99.90
9975;DHT22;5028;50.974;4.968;2023-04-03T07:12:03;2.80;99.90
9975;DHT22;5028;50.974;4.968;2023-04-03T07:14:38;2.90;99.90
9975;DHT22;5028;50.974;4.968;2023-04-03T07:17:13;3.00;99.90
9975;DHT22;5028;50.974;4.968;2023-04-03T07:19:42;3.00;99.90
9975;DHT22;5028;50.974;4.968;2023-04-03T07:22:17;3.10;99.90
9975;DHT22;5028;50.974;4.968;2023-04-03T07:24:54;3.20;99.90
9975;DHT22;5028;50.974;4.968;2023-04-03T07:27:22;3.20;99.90
9975;DHT22;5028;50.974;4.968;2023-04-03T07:29:58;3.30;99.90
9975;DHT22;5028;50.974;4.968;2023-04-03T07:32:33;3.30;99.90
9975;DHT22;5028;50.974;4.968;2023-04-03T07:35:02;3.40;99.90
9975;DHT22;5028;50.974;4.968;2023-04-03T07:37:36;3.40;99.90
9975;DHT22;5028;50.974;4.968;2023-04-03T07:40:08;3.50;99.90
9975;DHT22;5028;50.974;4.968;2023-04-03T07:42:45;3.60;99.90
9975;DHT22;5028;50.974;4.968;2023-04-03T07:45:20;3.60;99.90
9975;DHT22;5028;50.974;4.968;2023-04-03T07:47:49;3.70;99.90
9975;DHT22;5028;50.974;4.968;2023-04-03T07:50:25;3.70;99.90
9975;DHT22;5028;50.974;4.968;2023-04-03T07:53:00;3.80;99.90
9975;DHT22;5028;50.974;4.968;2023-04-03T07:55:32;3.90;99.90
9975;DHT22;5028;50.974;4.968;2023-04-03T07:58:08;3.90;99.90
9975;DHT22;5028;50.974;4.968;2023-04-03T08:00:43;4.00;99.90
9975;DHT22;5028;50.974;4.968;2023-04-03T08:03:12;4.10;99.90
9975;DHT22;5028;50.974;4.968;2023-04-03T08:06:02;4.10;99.90
9975;DHT22;5028;50.974;4.968;2023-04-03T08:08:42;4.20;99.90
9975;DHT22;5028;50.974;4.968;2023-04-03T08:11:20;4.30;99.90
9975;DHT22;5028;50.974;4.968;2023-04-03T08:13:55;4.40;99.90
9975;DHT22;5028;50.974;4.968;2023-04-03T08:16:30;4.40;99.90
9975;DHT22;5028;50.974;4.968;2023-04-03T08:18:59;4.50;99.90
9975;DHT22;5028;50.974;4.968;2023-04-03T08:21:45;4.50;99.90
9975;DHT22;5028;50.974;4.968;2023-04-03T08:24:20;4.60;99.90
9975;DHT22;5028;50.974;4.968;2023-04-03T08:26:57;4.70;99.90
9975;DHT22;5028;50.974;4.968;2023-04-03T08:29:26;4.70;99.90
9975;DHT22;5028;50.974;4.968;2023-04-03T08:32:01;4.80;99.90
9975;DHT22;5028;50.974;4.968;2023-04-03T08:34:30;4.90;99.90
9975;DHT22;5028;50.974;4.968;2023-04-03T08:37:08;4.90;99.90
9975;DHT22;5028;50.974;4.968;2023-04-03T08:39:43;5.00;99.90
9975;DHT22;5028;50.974;4.968;2023-04-03T08:42:18;5.10;99.90
9975;DHT22;5028;50.974;4.968;2023-04-03T08:44:57;5.10;99.90
9975;DHT22;5028;50.974;4.968;2023-04-03T08:47:38;5.20;99.90
9975;DHT22;5028;50.974;4.968;2023-04-03T08:50:12;5.30;99.90
9975;DHT22;5028;50.974;4.968;2023-04-03T08:52:51;5.40;99.90
9975;DHT22;5028;50.974;4.968;2023-04-03T08:55:24;5.40;99.90
9975;DHT22;5028;50.974;4.968;2023-04-03T08:58:04;5.40;99.90
9975;DHT22;5028;50.974;4.968;2023-04-03T09:00:41;5.50;99.90
9975;DHT22;5028;50.974;4.968;2023-04-03T09:03:20;5.50;99.90
9975;DHT22;5028;50.974;4.968;2023-04-03T09:06:01;5.60;99.90
9975;DHT22;5028;50.974;4.968;2023-04-03T09:08:49;5.70;99.90
9975;DHT22;5028;50.974;4.968;2023-04-03T09:11:24;5.80;99.90
9975;DHT22;5028;50.974;4.968;2023-04-03T09:14:09;5.90;99.90
9975;DHT22;5028;50.974;4.968;2023-04-03T09:16:48;6.00;99.90
9975;DHT22;5028;50.974;4.968;2023-04-03T09:19:38;6.20;99.90
9975;DHT22;5028;50.974;4.968;2023-04-03T09:22:16;6.20;99.90
9975;DHT22;5028;50.974;4.968;2023-04-03T09:24:57;6.30;99.90
9975;DHT22;5028;50.974;4.968;2023-04-03T09:27:27;6.50;99.90
9975;DHT22;5028;50.974;4.968;2023-04-03T09:30:05;6.70;99.90
9975;DHT22;5028;50.974;4.968;2023-04-03T09:32:36;6.80;99.90
9975;DHT22;5028;50.974;4.968;2023-04-03T09:35:24;6.80;99.90
9975;DHT22;5028;50.974;4.968;2023-04-03T09:38:18;7.00;99.90
9975;DHT22;5028;50.974;4.968;2023-04-03T09:41:05;7.30;99.90
9975;DHT22;5028;50.974;4.968;2023-04-03T09:43:37;7.50;99.90
9975;DHT22;5028;50.974;4.968;2023-04-03T09:46:26;7.50;99.90
9975;DHT22;5028;50.974;4.968;2023-04-03T09:48:58;7.50;99.90
9975;DHT22;5028;50.974;4.968;2023-04-03T09:51:36;7.40;99.90
9975;DHT22;5028;50.974;4.968;2023-04-03T09:54:30;7.50;99.90
9975;DHT22;5028;50.974;4.968;2023-04-03T09:57:11;7.60;99.90
9975;DHT22;5028;50.974;4.968;2023-04-03T09:59:56;7.80;99.90
9975;DHT22;5028;50.974;4.968;2023-04-03T10:02:35;8.00;99.90
9975;DHT22;5028;50.974;4.968;2023-04-03T10:05:30;8.10;99.90
9975;DHT22;5028;50.974;4.968;2023-04-03T10:08:22;8.40;99.90
9975;DHT22;5028;50.974;4.968;2023-04-03T10:11:13;8.40;99.90
9975;DHT22;5028;50.974;4.968;2023-04-03T10:13:53;8.20;99.90
9975;DHT22;5028;50.974;4.968;2023-04-03T10:16:36;8.40;99.90
9975;DHT22;5028;50.974;4.968;2023-04-03T10:19:24;8.50;99.90
9975;DHT22;5028;50.974;4.968;2023-04-03T10:22:12;8.70;99.90
9975;DHT22;5028;50.974;4.968;2023-04-03T10:24:59;8.70;99.90
9975;DHT22;5028;50.974;4.968;2023-04-03T10:27:49;8.80;99.90
9975;DHT22;5028;50.974;4.968;2023-04-03T10:30:34;8.70;99.90
9975;DHT22;5028;50.974;4.968;2023-04-03T10:33:23;8.90;99.90
9975;DHT22;5028;50.974;4.968;2023-04-03T10:36:10;9.00;99.90
9975;DHT22;5028;50.974;4.968;2023-04-03T10:38:48;9.20;99.90
9975;DHT22;5028;50.974;4.968;2023-04-03T10:41:34;9.10;99.90
9975;DHT22;5028;50.974;4.968;2023-04-03T10:44:15;9.10;99.90
9975;DHT22;5028;50.974;4.968;2023-04-03T10:46:59;9.00;99.90
9975;DHT22;5028;50.974;4.968;2023-04-03T10:49:42;9.00;99.90
9975;DHT22;5028;50.974;4.968;2023-04-03T10:52:32;9.30;99.90
9975;DHT22;5028;50.974;4.968;2023-04-03T10:55:19;9.30;99.90
9975;DHT22;5028;50.974;4.968;2023-04-03T10:57:59;9.20;99.90
9975;DHT22;5028;50.974;4.968;2023-04-03T11:00:35;9.20;99.90
9975;DHT22;5028;50.974;4.968;2023-04-03T11:03:13;9.20;99.90
9975;DHT22;5028;50.974;4.968;2023-04-03T11:05:44;9.20;99.90
9975;DHT22;5028;50.974;4.968;2023-04-03T11:08:27;9.40;99.90
9975;DHT22;5028;50.974;4.968;2023-04-03T11:11:08;9.50;99.90
9975;DHT22;5028;50.974;4.968;2023-04-03T11:13:49;9.40;99.90
9975;DHT22;5028;50.974;4.968;2023-04-03T11:16:29;9.40;99.90
9975;DHT22;5028;50.974;4.968;2023-04-03T11:19:15;9.50;99.90
9975;DHT22;5028;50.974;4.968;2023-04-03T11:22:00;9.60;99.90
9975;DHT22;5028;50.974;4.968;2023-04-03T11:24:33;9.90;99.90
9975;DHT22;5028;50.974;4.968;2023-04-03T11:27:16;10.10;99.90
9975;DHT22;5028;50.974;4.968;2023-04-03T11:29:50;9.90;99.90
9975;DHT22;5028;50.974;4.968;2023-04-03T11:32:44;9.90;99.90
9975;DHT22;5028;50.974;4.968;2023-04-03T11:35:19;9.60;99.90
9975;DHT22;5028;50.974;4.968;2023-04-03T11:37:54;9.50;99.90
9975;DHT22;5028;50.974;4.968;2023-04-03T11:40:28;9.50;99.90
9975;DHT22;5028;50.974;4.968;2023-04-03T11:43:15;9.70;99.90
9975;DHT22;5028;50.974;4.968;2023-04-03T11:45:50;9.80;99.90
9975;DHT22;5028;50.974;4.968;2023-04-03T11:48:58;9.80;99.90
9975;DHT22;5028;50.974;4.968;2023-04-03T11:51:51;9.70;99.90
9975;DHT22;5028;50.974;4.968;2023-04-03T11:54:47;9.80;99.90
9975;DHT22;5028;50.974;4.968;2023-04-03T12:01:06;9.60;99.90
9975;DHT22;5028;50.974;4.968;2023-04-03T12:04:08;9.70;99.90
9975;DHT22;5028;50.974;4.968;2023-04-03T12:09:59;10.00;99.90
9975;DHT22;5028;50.974;4.968;2023-04-03T12:12:39;10.00;99.90
9975;DHT22;5028;50.974;4.968;2023-04-03T12:15:41;9.70;99.90
9975;DHT22;5028;50.974;4.968;2023-04-03T12:18:46;9.80;99.90
9975;DHT22;5028;50.974;4.968;2023-04-03T12:21:23;9.90;99.90
9975;DHT22;5028;50.974;4.968;2023-04-03T12:24:02;10.20;99.90
9975;DHT22;5028;50.974;4.968;2023-04-03T12:26:41;10.10;99.90
9975;DHT22;5028;50.974;4.968;2023-04-03T12:29:21;10.30;99.90
9975;DHT22;5028;50.974;4.968;2023-04-03T12:32:08;10.30;99.90
9975;DHT22;5028;50.974;4.968;2023-04-03T12:34:53;10.30;99.90
9975;DHT22;5028;50.974;4.968;2023-04-03T12:37:57;10.50;99.90
9975;DHT22;5028;50.974;4.968;2023-04-03T12:40:33;10.40;99.90
9975;DHT22;5028;50.974;4.968;2023-04-03T12:43:32;10.20;99.90
9975;DHT22;5028;50.974;4.968;2023-04-03T12:46:14;10.00;99.90
9975;DHT22;5028;50.974;4.968;2023-04-03T12:48:49;9.80;99.90
9975;DHT22;5028;50.974;4.968;2023-04-03T12:51:31;9.90;99.90
9975;DHT22;5028;50.974;4.968;2023-04-03T12:54:12;10.20;99.90
9975;DHT22;5028;50.974;4.968;2023-04-03T12:56:48;10.40;99.90
9975;DHT22;5028;50.974;4.968;2023-04-03T12:59:20;10.40;99.90
9975;DHT22;5028;50.974;4.968;2023-04-03T13:01:58;10.30;99.90
9975;DHT22;5028;50.974;4.968;2023-04-03T13:04:33;10.30;99.90
9975;DHT22;5028;50.974;4.968;2023-04-03T13:07:03;10.60;99.90
9975;DHT22;5028;50.974;4.968;2023-04-03T13:09:55;10.80;99.90
9975;DHT22;5028;50.974;4.968;2023-04-03T13:12:30;11.00;99.90
9975;DHT22;5028;50.974;4.968;2023-04-03T13:15:02;11.00;99.90
9975;DHT22;5028;50.974;4.968;2023-04-03T13:17:39;11.00;99.90
9975;DHT22;5028;50.974;4.968;2023-04-03T13:20:20;11.10;99.90
9975;DHT22;5028;50.974;4.968;2023-04-03T13:23:08;10.90;99.90
9975;DHT22;5028;50.974;4.968;2023-04-03T13:25:46;10.80;99.90
9975;DHT22;5028;50.974;4.968;2023-04-03T13:28:18;11.30;99.90
9975;DHT22;5028;50.974;4.968;2023-04-03T13:30:56;11.40;99.90
9975;DHT22;5028;50.974;4.968;2023-04-03T13:33:35;11.50;99.90
9975;DHT22;5028;50.974;4.968;2023-04-03T13:36:08;11.60;99.90
9975;DHT22;5028;50.974;4.968;2023-04-03T13:39:01;11.90;99.90
9975;DHT22;5028;50.974;4.968;2023-04-03T13:41:32;11.50;99.90
9975;DHT22;5028;50.974;4.968;2023-04-03T13:44:26;11.20;99.90
9975;DHT22;5028;50.974;4.968;2023-04-03T13:47:16;11.20;99.90
9975;DHT22;5028;50.974;4.968;2023-04-03T13:49:58;10.90;99.90
9975;DHT22;5028;50.974;4.968;2023-04-03T13:52:40;10.90;99.90
9975;DHT22;5028;50.974;4.968;2023-04-03T13:55:18;11.00;99.90
9975;DHT22;5028;50.974;4.968;2023-04-03T13:57:57;10.90;99.90
9975;DHT22;5028;50.974;4.968;2023-04-03T14:00:34;10.90;99.90
9975;DHT22;5028;50.974;4.968;2023-04-03T14:03:16;10.90;99.90
9975;DHT22;5028;50.974;4.968;2023-04-03T14:05:53;10.70;99.90
9975;DHT22;5028;50.974;4.968;2023-04-03T14:08:30;10.80;99.90
9975;DHT22;5028;50.974;4.968;2023-04-03T14:11:16;10.90;99.90
9975;DHT22;5028;50.974;4.968;2023-04-03T14:13:48;10.90;99.90
9975;DHT22;5028;50.974;4.968;2023-04-03T14:16:28;10.80;99.90
9975;DHT22;5028;50.974;4.968;2023-04-03T14:18:58;10.90;99.90
9975;DHT22;5028;50.974;4.968;2023-04-03T14:21:33;11.00;99.90
9975;DHT22;5028;50.974;4.968;2023-04-03T14:24:08;10.90;99.90
9975;DHT22;5028;50.974;4.968;2023-04-03T14:26:40;10.80;99.90
9975;DHT22;5028;50.974;4.968;2023-04-03T14:29:15;10.70;99.90
9975;DHT22;5028;50.974;4.968;2023-04-03T14:31:50;10.40;99.90
9975;DHT22;5028;50.974;4.968;2023-04-03T14:34:33;10.40;99.90
9975;DHT22;5028;50.974;4.968;2023-04-03T14:37:11;10.50;99.90
9975;DHT22;5028;50.974;4.968;2023-04-03T14:39:47;10.30;99.90
9975;DHT22;5028;50.974;4.968;2023-04-03T14:42:23;10.40;99.90
9975;DHT22;5028;50.974;4.968;2023-04-03T14:44:59;10.40;99.90
9975;DHT22;5028;50.974;4.968;2023-04-03T14:47:37;10.30;99.90
9975;DHT22;5028;50.974;4.968;2023-04-03T14:50:12;10.10;99.90
9975;DHT22;5028;50.974;4.968;2023-04-03T14:52:50;10.10;99.90
9975;DHT22;5028;50.974;4.968;2023-04-03T14:55:26;10.10;99.90
9975;DHT22;5028;50.974;4.968;2023-04-03T14:57:56;10.10;99.90
9975;DHT22;5028;50.974;4.968;2023-04-03T15:00:31;10.10;99.90
9975;DHT22;5028;50.974;4.968;2023-04-03T15:03:00;10.10;99.90
9975;DHT22;5028;50.974;4.968;2023-04-03T15:05:35;10.00;99.90
9975;DHT22;5028;50.974;4.968;2023-04-03T15:08:20;10.00;99.90
9975;DHT22;5028;50.974;4.968;2023-04-03T15:10:51;10.00;99.90
9975;DHT22;5028;50.974;4.968;2023-04-03T15:13:30;10.00;99.90
9975;DHT22;5028;50.974;4.968;2023-04-03T15:15:59;10.00;99.90
9975;DHT22;5028;50.974;4.968;2023-04-03T15:18:37;9.90;99.90
9975;DHT22;5028;50.974;4.968;2023-04-03T15:21:13;9.80;99.90
9975;DHT22;5028;50.974;4.968;2023-04-03T15:23:42;9.80;99.90
9975;DHT22;5028;50.974;4.968;2023-04-03T15:26:16;9.70;99.90
9975;DHT22;5028;50.974;4.968;2023-04-03T15:28:46;9.70;99.90
9975;DHT22;5028;50.974;4.968;2023-04-03T15:31:22;9.70;99.90
9975;DHT22;5028;50.974;4.968;2023-04-03T15:33:57;9.70;99.90
9975;DHT22;5028;50.974;4.968;2023-04-03T15:36:25;9.60;99.90
9975;DHT22;5028;50.974;4.968;2023-04-03T15:39:01;9.60;99.90
9975;DHT22;5028;50.974;4.968;2023-04-03T15:41:36;9.60;99.90
9975;DHT22;5028;50.974;4.968;2023-04-03T15:44:06;9.60;99.90
9975;DHT22;5028;50.974;4.968;2023-04-03T15:46:41;9.60;99.90
9975;DHT22;5028;50.974;4.968;2023-04-03T15:49:16;9.60;99.90
9975;DHT22;5028;50.974;4.968;2023-04-03T15:51:44;9.60;99.90
9975;DHT22;5028;50.974;4.968;2023-04-03T15:54:20;9.60;99.90
9975;DHT22;5028;50.974;4.968;2023-04-03T15:56:51;9.60;99.90
9975;DHT22;5028;50.974;4.968;2023-04-03T15:59:27;9.60;99.90
9975;DHT22;5028;50.974;4.968;2023-04-03T16:01:59;9.50;99.90
9975;DHT22;5028;50.974;4.968;2023-04-03T16:04:35;9.50;99.90
9975;DHT22;5028;50.974;4.968;2023-04-03T16:07:10;9.50;99.90
9975;DHT22;5028;50.974;4.968;2023-04-03T16:09:53;9.50;99.90
9975;DHT22;5028;50.974;4.968;2023-04-03T16:12:29;9.50;99.90
9975;DHT22;5028;50.974;4.968;2023-04-03T16:15:06;9.50;99.90
9975;DHT22;5028;50.974;4.968;2023-04-03T16:17:37;9.40;99.90
9975;DHT22;5028;50.974;4.968;2023-04-03T16:20:14;9.30;99.90
9975;DHT22;5028;50.974;4.968;2023-04-03T16:22:49;9.40;99.90
9975;DHT22;5028;50.974;4.968;2023-04-03T16:25:18;9.20;99.90
9975;DHT22;5028;50.974;4.968;2023-04-03T16:27:54;9.10;99.90
9975;DHT22;5028;50.974;4.968;2023-04-03T16:30:31;9.10;99.90
9975;DHT22;5028;50.974;4.968;2023-04-03T16:33:00;9.10;99.90
9975;DHT22;5028;50.974;4.968;2023-04-03T16:35:35;9.10;99.90
9975;DHT22;5028;50.974;4.968;2023-04-03T16:38:10;9.10;99.90
9975;DHT22;5028;50.974;4.968;2023-04-03T16:40:38;9.10;99.90
9975;DHT22;5028;50.974;4.968;2023-04-03T16:43:14;9.00;99.90
9975;DHT22;5028;50.974;4.968;2023-04-03T16:45:51;8.90;99.90
9975;DHT22;5028;50.974;4.968;2023-04-03T16:48:22;8.90;99.90
9975;DHT22;5028;50.974;4.968;2023-04-03T16:50:57;8.80;99.90
9975;DHT22;5028;50.974;4.968;2023-04-03T16:53:26;8.80;99.90
9975;DHT22;5028;50.974;4.968;2023-04-03T16:55:57;8.70;99.90
9975;DHT22;5028;50.974;4.968;2023-04-03T16:58:32;8.70;99.90
9975;DHT22;5028;50.974;4.968;2023-04-03T17:01:11;8.60;99.90
9975;DHT22;5028;50.974;4.968;2023-04-03T17:03:46;8.60;99.90
9975;DHT22;5028;50.974;4.968;2023-04-03T17:06:24;8.60;99.90
9975;DHT22;5028;50.974;4.968;2023-04-03T17:09:00;8.50;99.90
9975;DHT22;5028;50.974;4.968;2023-04-03T17:11:36;8.50;99.90
9975;DHT22;5028;50.974;4.968;2023-04-03T17:14:15;8.50;99.90
9975;DHT22;5028;50.974;4.968;2023-04-03T17:16:48;8.40;99.90
9975;DHT22;5028;50.974;4.968;2023-04-03T17:19:25;8.40;99.90
9975;DHT22;5028;50.974;4.968;2023-04-03T17:22:01;8.40;99.90